createdAt,value
2018-06-02T00:01:59.496Z,95323.11
2018-06-02T00:04:26.180Z,95330.56
2018-06-02T00:06:52.842Z,95328.87
2018-06-02T00:09:19.496Z,95335.27
2018-06-02T00:11:46.153Z,95334.38
2018-06-02T00:14:12.857Z,95341.71
2018-06-02T00:16:39.548Z,95341.59
2018-06-02T00:19:06.210Z,95343.13
2018-06-02T00:21:32.892Z,95339.89
2018-06-02T00:23:59.557Z,95342.44
2018-06-02T00:26:26.284Z,95348.89
2018-06-02T00:28:52.946Z,95341.29
2018-06-02T00:31:19.567Z,95340.11
2018-06-02T00:33:46.262Z,95343.91
2018-06-02T00:36:12.904Z,95341.92
2018-06-02T00:38:39.690Z,95343.39
2018-06-02T00:41:06.380Z,95344.21
2018-06-02T00:43:33.014Z,95346.31
2018-06-02T00:45:59.663Z,95342.12
2018-06-02T00:48:26.392Z,95348.12
2018-06-02T00:50:53.039Z,95341.88
2018-06-02T00:53:19.668Z,95334.44
2018-06-02T00:55:46.324Z,95339.42
2018-06-02T00:58:12.985Z,95343.06
2018-06-02T01:00:39.635Z,95342.68
2018-06-02T01:03:06.423Z,95339.73
2018-06-02T01:05:36.193Z,95342.13
2018-06-02T01:08:02.852Z,95332.55
2018-06-02T01:10:29.624Z,95331.99
2018-06-02T01:12:56.245Z,95330.91
2018-06-02T01:15:22.907Z,95334.58
2018-06-02T01:17:49.605Z,95335.09
2018-06-02T01:20:16.241Z,95340.66
2018-06-02T01:22:42.924Z,95341.17
2018-06-02T01:25:09.596Z,95343.70
2018-06-02T01:27:36.254Z,95345.94
2018-06-02T01:30:02.961Z,95352.36
2018-06-02T01:32:29.649Z,95353.11
2018-06-02T01:34:56.294Z,95355.12
2018-06-02T01:37:22.931Z,95351.46
2018-06-02T01:39:49.669Z,95349.91
2018-06-02T01:42:16.301Z,95341.21
2018-06-02T01:44:42.949Z,95342.25
2018-06-02T01:47:09.646Z,95344.59
2018-06-02T01:49:36.355Z,95348.55
2018-06-02T01:52:03.005Z,95346.55
2018-06-02T01:54:29.663Z,95347.92
2018-06-02T01:56:56.364Z,95350.59
2018-06-02T01:59:23.084Z,95347.68
2018-06-02T02:01:49.749Z,95354.64
2018-06-02T02:04:16.408Z,95355.86
2018-06-02T02:06:43.100Z,95351.67
2018-06-02T02:09:09.755Z,95349.19
2018-06-02T02:11:36.452Z,95349.69
2018-06-02T02:14:03.139Z,95350.25
2018-06-02T02:16:29.791Z,95346.92
2018-06-02T02:18:56.435Z,95342.02
2018-06-02T02:21:23.141Z,95337.47
2018-06-02T02:23:49.792Z,95348.99
2018-06-02T02:26:16.453Z,95356.34
2018-06-02T02:28:43.238Z,95352.80
2018-06-02T02:31:09.860Z,95344.68
2018-06-02T02:33:36.511Z,95346.83
2018-06-02T02:36:03.161Z,95359.36
2018-06-02T02:38:29.838Z,95357.52
2018-06-02T02:40:56.505Z,95357.02
2018-06-02T02:43:23.161Z,95356.88
2018-06-02T02:45:49.854Z,95356.50
2018-06-02T02:48:16.636Z,95353.97
2018-06-02T02:50:43.273Z,95353.55
2018-06-02T02:53:09.924Z,95352.37
2018-06-02T02:55:36.616Z,95355.50
2018-06-02T02:58:03.301Z,95355.03
2018-06-02T03:00:30.020Z,95350.09
2018-06-02T03:02:56.662Z,95351.79
2018-06-02T03:05:23.276Z,95365.03
2018-06-02T03:07:49.971Z,95365.63
2018-06-02T03:10:16.593Z,95369.73
2018-06-02T03:12:43.241Z,95372.52
2018-06-02T03:15:09.966Z,95366.94
2018-06-02T03:17:36.578Z,95358.83
2018-06-02T03:20:05.353Z,95361.12
2018-06-02T03:22:32.004Z,95366.31
2018-06-02T03:24:58.669Z,95364.91
2018-06-02T03:27:25.324Z,95363.86
2018-06-02T03:29:51.977Z,95353.89
2018-06-02T03:32:18.669Z,95355.82
2018-06-02T03:34:45.290Z,95362.07
2018-06-02T03:37:11.950Z,95354.30
2018-06-02T03:39:38.654Z,95361.77
2018-06-02T03:42:05.395Z,95364.09
2018-06-02T03:44:32.004Z,95356.98
2018-06-02T03:46:58.698Z,95362.81
2018-06-02T03:49:25.339Z,95362.73
2018-06-02T03:51:52.118Z,95365.52
2018-06-02T03:54:18.803Z,95366.84
2018-06-02T03:56:45.447Z,95365.66
2018-06-02T03:59:12.071Z,95365.15
2018-06-02T04:01:38.719Z,95364.36
2018-06-02T04:04:05.546Z,95361.02
2018-06-02T04:06:32.220Z,95355.75
2018-06-02T04:08:58.920Z,95345.98
2018-06-02T04:11:25.594Z,95360.23
2018-06-02T04:13:52.295Z,95363.34
2018-06-02T04:16:18.919Z,95363.86
2018-06-02T04:18:45.605Z,95366.91
2018-06-02T04:21:12.291Z,95371.00
2018-06-02T04:23:38.923Z,95370.27
2018-06-02T04:26:05.620Z,95365.80
2018-06-02T04:28:32.271Z,95371.55
2018-06-02T04:30:59.007Z,95368.95
2018-06-02T04:33:25.664Z,95360.44
2018-06-02T04:35:52.333Z,95361.09
2018-06-02T04:38:19.004Z,95365.73
2018-06-02T04:40:45.680Z,95364.63
2018-06-02T04:43:12.332Z,95369.08
2018-06-02T04:45:38.983Z,95370.64
2018-06-02T04:48:05.682Z,95369.12
2018-06-02T04:50:32.339Z,95368.16
2018-06-02T04:52:59.014Z,95369.30
2018-06-02T04:55:25.635Z,95367.12
2018-06-02T04:57:52.382Z,95375.77
2018-06-02T05:00:18.996Z,95370.48
2018-06-02T05:02:45.679Z,95367.39
2018-06-02T05:05:12.304Z,95365.44
2018-06-02T05:07:39.009Z,95376.89
2018-06-02T05:10:05.667Z,95372.13
2018-06-02T05:12:32.386Z,95373.38
2018-06-02T05:14:59.072Z,95366.77
2018-06-02T05:17:25.740Z,95367.09
2018-06-02T05:19:52.496Z,95369.70
2018-06-02T05:22:19.159Z,95370.92
2018-06-02T05:24:45.837Z,95370.41
2018-06-02T05:27:12.488Z,95369.20
2018-06-02T05:29:39.193Z,95368.82
2018-06-02T05:32:05.841Z,95366.17
2018-06-02T05:34:32.494Z,95365.24
2018-06-02T05:36:59.223Z,95371.95
2018-06-02T05:39:25.928Z,95375.34
2018-06-02T05:41:52.589Z,95369.89
2018-06-02T05:44:19.251Z,95372.09
2018-06-02T05:46:45.921Z,95368.56
2018-06-02T05:49:12.612Z,95370.50
2018-06-02T05:51:39.270Z,95365.95
2018-06-02T05:54:05.931Z,95366.02
2018-06-02T05:56:32.688Z,95371.98
2018-06-02T05:58:59.308Z,95367.09
2018-06-02T06:01:26.005Z,95368.49
2018-06-02T06:03:52.685Z,95369.03
2018-06-02T06:06:19.338Z,95369.52
2018-06-02T06:08:45.984Z,95369.41
2018-06-02T06:11:12.632Z,95368.52
2018-06-02T06:13:39.283Z,95369.09
2018-06-02T06:16:06.008Z,95365.55
2018-06-02T06:18:32.683Z,95369.31
2018-06-02T06:20:59.328Z,95371.95
2018-06-02T06:23:25.985Z,95373.55
2018-06-02T06:25:52.631Z,95370.88
2018-06-02T06:28:19.323Z,95371.70
2018-06-02T06:30:46.087Z,95370.77
2018-06-02T06:33:12.819Z,95368.03
2018-06-02T06:35:39.436Z,95367.77
2018-06-02T06:38:06.122Z,95368.23
2018-06-02T06:40:32.749Z,95373.70
2018-06-02T06:42:59.419Z,95374.56
2018-06-02T06:45:26.165Z,95370.81
2018-06-02T06:47:52.898Z,95367.00
2018-06-02T06:50:19.581Z,95370.82
2018-06-02T06:52:46.235Z,95368.09
2018-06-02T06:55:12.868Z,95360.81
2018-06-02T06:57:39.533Z,95362.83
2018-06-02T07:00:06.221Z,95359.02
2018-06-02T07:02:32.881Z,95358.90
2018-06-02T07:04:59.533Z,95353.11
2018-06-02T07:07:26.215Z,95353.47
2018-06-02T07:09:52.844Z,95348.26
2018-06-02T07:12:19.539Z,95346.86
2018-06-02T07:14:46.229Z,95351.08
2018-06-02T07:17:12.869Z,95349.57
2018-06-02T07:19:39.531Z,95353.58
2018-06-02T07:22:06.177Z,95349.77
2018-06-02T07:24:32.872Z,95345.44
2018-06-02T07:26:59.573Z,95350.09
2018-06-02T07:29:26.258Z,95351.92
2018-06-02T07:31:52.919Z,95351.78
2018-06-02T07:34:19.578Z,95347.03
2018-06-02T07:36:46.272Z,95347.67
2018-06-02T07:39:12.965Z,95340.48
2018-06-02T07:41:39.625Z,95337.56
2018-06-02T07:44:06.255Z,95334.39
2018-06-02T07:46:36.386Z,95338.34
2018-06-02T07:49:03.083Z,95334.97
2018-06-02T07:51:29.691Z,95333.41
2018-06-02T07:53:56.389Z,95337.21
2018-06-02T07:56:23.013Z,95336.63
2018-06-02T07:58:49.765Z,95331.05
2018-06-02T08:01:16.421Z,95336.58
2018-06-02T08:03:43.040Z,95327.77
2018-06-02T08:06:09.711Z,95323.11
2018-06-02T08:08:36.409Z,95328.84
2018-06-02T08:11:03.020Z,95320.73
2018-06-02T08:13:29.720Z,95322.18
2018-06-02T08:15:56.410Z,95318.69
2018-06-02T08:18:23.075Z,95321.13
2018-06-02T08:20:49.725Z,95318.34
2018-06-02T08:23:16.456Z,95317.20
2018-06-02T08:25:43.077Z,95313.72
2018-06-02T08:28:09.771Z,95317.88
2018-06-02T08:30:36.446Z,95308.92
2018-06-02T08:33:03.098Z,95307.64
2018-06-02T08:35:29.768Z,95310.06
2018-06-02T08:37:56.408Z,95313.28
2018-06-02T08:40:23.111Z,95305.98
2018-06-02T08:42:49.767Z,95305.23
2018-06-02T08:45:16.491Z,95303.89
2018-06-02T08:47:43.112Z,95302.64
2018-06-02T08:50:09.792Z,95298.64
2018-06-02T08:52:36.437Z,95297.06
2018-06-02T08:55:03.083Z,95301.62
2018-06-02T08:57:29.723Z,95296.42
2018-06-02T08:59:56.450Z,95290.41
2018-06-02T09:02:23.079Z,95289.19
2018-06-02T09:04:49.784Z,95291.40
2018-06-02T09:07:16.537Z,95293.11
2018-06-02T09:09:43.257Z,95290.73
2018-06-02T09:12:09.967Z,95288.58
2018-06-02T09:14:36.619Z,95284.02
2018-06-02T09:17:03.274Z,95280.16
2018-06-02T09:19:29.922Z,95277.56
2018-06-02T09:21:56.645Z,95274.54
2018-06-02T09:24:23.297Z,95272.83
2018-06-02T09:26:49.971Z,95276.70
2018-06-02T09:29:16.615Z,95277.22
2018-06-02T09:31:43.265Z,95271.18
2018-06-02T09:34:10.025Z,95271.18
2018-06-02T09:36:36.718Z,95274.28
2018-06-02T09:39:03.372Z,95265.74
2018-06-02T09:41:30.075Z,95265.80
2018-06-02T09:43:56.800Z,95257.92
2018-06-02T09:46:23.425Z,95256.73
2018-06-02T09:48:50.123Z,95253.48
2018-06-02T09:51:16.805Z,95258.51
2018-06-02T09:53:43.475Z,95249.99
2018-06-02T09:56:10.146Z,95251.59
2018-06-02T09:58:36.767Z,95253.94
2018-06-02T10:01:03.432Z,95244.87
2018-06-02T10:03:30.127Z,95244.18
2018-06-02T10:05:56.809Z,95246.53
2018-06-02T10:08:23.469Z,95247.67
2018-06-02T10:10:50.165Z,95243.34
2018-06-02T10:13:16.850Z,95240.70
2018-06-02T10:15:43.545Z,95245.20
2018-06-02T10:18:10.152Z,95237.27
2018-06-02T10:20:36.887Z,95226.59
2018-06-02T10:23:03.495Z,95229.80
2018-06-02T10:25:30.188Z,95220.14
2018-06-02T10:27:56.823Z,95224.08
2018-06-02T10:30:23.524Z,95222.18
2018-06-02T10:32:50.212Z,95221.48
2018-06-02T10:35:16.881Z,95225.52
2018-06-02T10:37:43.718Z,95220.27
2018-06-02T10:40:10.428Z,95218.61
2018-06-02T10:42:37.044Z,95216.89
2018-06-02T10:45:03.698Z,95211.95
2018-06-02T10:47:32.180Z,95208.34
2018-06-02T10:49:57.070Z,95214.36
2018-06-02T10:52:23.765Z,95207.17
2018-06-02T10:54:50.457Z,95205.45
2018-06-02T10:57:17.106Z,95205.99
2018-06-02T10:59:43.755Z,95198.44
2018-06-02T11:02:10.429Z,95198.84
2018-06-02T11:04:37.094Z,95190.84
2018-06-02T11:07:03.785Z,95186.95
2018-06-02T11:09:30.484Z,95186.23
2018-06-02T11:11:57.128Z,95184.36
2018-06-02T11:14:23.858Z,95182.28
2018-06-02T11:16:50.475Z,95171.02
2018-06-02T11:19:17.189Z,95172.30
2018-06-02T11:21:43.842Z,95170.67
2018-06-02T11:24:10.535Z,95161.13
2018-06-02T11:26:37.248Z,95164.27
2018-06-02T11:29:03.900Z,95165.86
2018-06-02T11:31:30.539Z,95164.03
2018-06-02T11:33:57.230Z,95165.91
2018-06-02T11:36:25.226Z,95162.16
2018-06-02T11:38:53.517Z,95156.30
2018-06-02T11:41:20.179Z,95150.08
2018-06-02T11:43:46.863Z,95147.98
2018-06-02T11:46:13.523Z,95138.22
2018-06-02T11:48:40.173Z,95132.76
2018-06-02T11:51:06.914Z,95130.87
2018-06-02T11:53:33.531Z,95130.92
2018-06-02T11:56:00.258Z,95124.33
2018-06-02T11:58:26.914Z,95125.09
2018-06-02T12:00:53.602Z,95112.22
2018-06-02T12:03:20.207Z,95111.25
2018-06-02T12:05:46.909Z,95105.94
2018-06-02T12:08:13.560Z,95107.85
2018-06-02T12:10:40.223Z,95104.55
2018-06-02T12:13:06.895Z,95088.97
2018-06-02T12:15:33.549Z,95101.13
2018-06-02T12:18:00.203Z,95108.39
2018-06-02T12:20:26.875Z,95108.88
2018-06-02T12:22:53.546Z,95102.66
2018-06-02T12:25:22.893Z,95105.75
2018-06-02T12:27:49.585Z,95106.09
2018-06-02T12:30:16.227Z,95094.70
2018-06-02T12:32:42.859Z,95088.55
2018-06-02T12:35:09.524Z,95094.70
2018-06-02T12:37:36.171Z,95095.91
2018-06-02T12:40:02.828Z,95097.56
2018-06-02T12:42:29.497Z,95091.52
2018-06-02T12:44:56.152Z,95095.68
2018-06-02T12:47:22.844Z,95089.87
2018-06-02T12:49:49.463Z,95094.27
2018-06-02T12:52:16.165Z,95086.64
2018-06-02T12:54:42.793Z,95086.27
2018-06-02T12:57:09.480Z,95084.25
2018-06-02T12:59:36.109Z,95087.20
2018-06-02T13:02:02.751Z,95086.31
2018-06-02T13:04:29.407Z,95083.82
2018-06-02T13:06:56.047Z,95075.90
2018-06-02T13:09:22.695Z,95068.70
2018-06-02T13:11:49.370Z,95078.00
2018-06-02T13:14:16.031Z,95072.17
2018-06-02T13:16:42.692Z,95071.38
2018-06-02T13:19:09.387Z,95074.23
2018-06-02T13:21:36.057Z,95076.73
2018-06-02T13:24:02.724Z,95083.18
2018-06-02T13:26:29.331Z,95084.39
2018-06-02T13:28:55.986Z,95086.72
2018-06-02T13:31:22.652Z,95084.36
2018-06-02T13:33:49.345Z,95082.78
2018-06-02T13:36:16.039Z,95089.09
2018-06-02T13:38:42.681Z,95089.28
2018-06-02T13:41:10.721Z,95095.88
2018-06-02T13:43:35.992Z,95091.92
2018-06-02T13:46:02.669Z,95089.55
2018-06-02T13:48:29.323Z,95085.16
2018-06-02T13:50:55.945Z,95080.80
2018-06-02T13:53:22.604Z,95086.59
2018-06-02T13:55:49.249Z,95082.08
2018-06-02T13:58:15.976Z,95067.37
2018-06-02T14:00:42.779Z,95083.00
2018-06-02T14:03:09.444Z,95076.78
2018-06-02T14:05:36.110Z,95077.80
2018-06-02T14:08:02.769Z,95075.81
2018-06-02T14:10:29.443Z,95073.89
2018-06-02T14:12:56.164Z,95072.01
2018-06-02T14:15:22.829Z,95072.53
2018-06-02T14:17:49.505Z,95075.17
2018-06-02T14:20:16.151Z,95079.51
2018-06-02T14:22:42.792Z,95069.98
2018-06-02T14:25:09.457Z,95067.27
2018-06-02T14:27:36.118Z,95060.27
2018-06-02T14:30:02.890Z,95069.11
2018-06-02T14:32:29.544Z,95064.77
2018-06-02T14:34:56.193Z,95071.52
2018-06-02T14:37:22.939Z,95070.77
2018-06-02T14:39:49.563Z,95078.25
2018-06-02T14:42:16.218Z,95073.14
2018-06-02T14:44:42.872Z,95075.56
2018-06-02T14:47:09.565Z,95079.95
2018-06-02T14:49:36.218Z,95075.90
2018-06-02T14:52:02.902Z,95070.78
2018-06-02T14:54:29.553Z,95057.49
2018-06-02T14:56:56.222Z,95044.86
2018-06-02T14:59:24.197Z,95036.89
2018-06-02T15:01:49.552Z,95042.34
2018-06-02T15:04:16.256Z,95054.13
2018-06-02T15:06:42.907Z,95060.84
2018-06-02T15:09:09.609Z,95060.84
2018-06-02T15:11:36.255Z,95059.70
2018-06-02T15:14:02.871Z,95073.80
2018-06-02T15:16:29.551Z,95068.66
2018-06-02T15:18:56.178Z,95057.95
2018-06-02T15:21:22.835Z,95047.33
2018-06-02T15:23:49.534Z,95042.83
2018-06-02T15:26:16.163Z,95048.59
2018-06-02T15:28:42.828Z,95071.14
2018-06-02T15:31:09.529Z,95086.75
2018-06-02T15:33:36.188Z,95095.11
2018-06-02T15:36:02.957Z,95106.84
2018-06-02T15:38:29.624Z,95113.17
2018-06-02T15:40:56.272Z,95119.66
2018-06-02T15:43:22.930Z,95125.66
2018-06-02T15:45:49.599Z,95125.55
2018-06-02T15:48:16.356Z,95126.16
2018-06-02T15:50:42.927Z,95120.84
2018-06-02T15:53:09.615Z,95111.39
2018-06-02T15:55:36.248Z,95110.09
2018-06-02T15:58:02.925Z,95124.08
2018-06-02T16:00:29.616Z,95135.16
2018-06-02T16:02:56.276Z,95150.48
2018-06-02T16:05:22.961Z,95169.83
2018-06-02T16:07:49.592Z,95197.24
2018-06-02T16:10:16.249Z,95200.98
2018-06-02T16:12:42.990Z,95207.52
2018-06-02T16:15:09.600Z,95211.86
2018-06-02T16:17:36.254Z,95217.15
2018-06-02T16:20:02.920Z,95226.40
2018-06-02T16:22:29.567Z,95225.30
2018-06-02T16:24:56.228Z,95228.15
2018-06-02T16:27:22.897Z,95238.93
2018-06-02T16:29:49.620Z,95250.77
2018-06-02T16:32:16.285Z,95251.80
2018-06-02T16:34:42.935Z,95257.33
2018-06-02T16:37:09.741Z,95267.18
2018-06-02T16:39:36.353Z,95278.92
2018-06-02T16:42:03.015Z,95271.49
2018-06-02T16:44:29.666Z,95269.03
2018-06-02T16:46:56.356Z,95269.86
2018-06-02T16:49:22.976Z,95274.52
2018-06-02T16:51:49.633Z,95268.89
2018-06-02T16:54:16.327Z,95261.91
2018-06-02T16:56:42.979Z,95253.30
2018-06-02T16:59:09.610Z,95247.59
2018-06-02T17:01:36.265Z,95251.98
2018-06-02T17:04:02.953Z,95243.39
2018-06-02T17:06:29.584Z,95242.77
2018-06-02T17:08:56.265Z,95238.08
2018-06-02T17:11:22.903Z,95237.51
2018-06-02T17:13:52.302Z,95229.75
2018-06-02T17:16:18.962Z,95228.14
2018-06-02T17:18:45.625Z,95223.94
2018-06-02T17:21:12.293Z,95224.39
2018-06-02T17:23:38.942Z,95228.61
2018-06-02T17:26:05.593Z,95223.23
2018-06-02T17:28:32.264Z,95230.13
2018-06-02T17:30:58.928Z,95220.55
2018-06-02T17:33:25.584Z,95225.92
2018-06-02T17:35:52.310Z,95222.47
2018-06-02T17:38:18.931Z,95218.11
2018-06-02T17:40:45.632Z,95217.04
2018-06-02T17:43:12.279Z,95215.13
2018-06-02T17:45:38.901Z,95216.22
2018-06-02T17:48:05.548Z,95217.09
2018-06-02T17:50:32.239Z,95217.14
2018-06-02T17:52:58.884Z,95220.33
2018-06-02T17:55:25.540Z,95216.81
2018-06-02T17:57:52.199Z,95218.23
2018-06-02T18:00:18.833Z,95214.95
2018-06-02T18:02:45.499Z,95215.09
2018-06-02T18:05:12.111Z,95209.41
2018-06-02T18:07:38.762Z,95210.73
2018-06-02T18:10:05.418Z,95204.84
2018-06-02T18:12:32.107Z,95197.00
2018-06-02T18:14:58.717Z,95198.14
2018-06-02T18:17:25.375Z,95192.66
2018-06-02T18:19:52.067Z,95192.03
2018-06-02T18:22:18.758Z,95192.17
2018-06-02T18:24:45.456Z,95193.19
2018-06-02T18:27:12.075Z,95190.31
2018-06-02T18:29:38.723Z,95184.20
2018-06-02T18:32:05.419Z,95180.14
2018-06-02T18:34:32.069Z,95174.34
2018-06-02T18:36:58.774Z,95170.80
2018-06-02T18:39:25.439Z,95170.88
2018-06-02T18:41:52.086Z,95167.31
2018-06-02T18:44:18.812Z,95175.77
2018-06-02T18:46:45.573Z,95173.25
2018-06-02T18:49:12.241Z,95173.91
2018-06-02T18:51:38.928Z,95164.23
2018-06-02T18:54:05.760Z,95171.36
2018-06-02T18:56:32.392Z,95180.59
2018-06-02T18:58:59.004Z,95183.89
2018-06-02T19:01:25.669Z,95189.30
2018-06-02T19:03:52.318Z,95201.39
2018-06-02T19:06:19.007Z,95196.77
2018-06-02T19:08:45.617Z,95217.34
2018-06-02T19:11:12.283Z,95215.90
2018-06-02T19:13:38.980Z,95215.06
2018-06-02T19:16:05.659Z,95217.63
2018-06-02T19:18:32.280Z,95221.17
2018-06-02T19:20:58.930Z,95215.63
2018-06-02T19:23:25.609Z,95212.25
2018-06-02T19:25:52.267Z,95208.72
2018-06-02T19:28:18.947Z,95208.91
2018-06-02T19:30:45.673Z,95213.90
2018-06-02T19:33:12.359Z,95220.52
2018-06-02T19:35:39.014Z,95215.79
2018-06-02T19:38:05.675Z,95220.39
2018-06-02T19:40:32.336Z,95226.89
2018-06-02T19:42:58.999Z,95223.67
2018-06-02T19:45:25.644Z,95223.08
2018-06-02T19:47:52.309Z,95226.91
2018-06-02T19:50:18.973Z,95229.02
2018-06-02T19:52:45.631Z,95226.11
2018-06-02T19:55:12.322Z,95228.22
2018-06-02T19:57:38.976Z,95224.89
2018-06-02T20:00:05.632Z,95223.17
2018-06-02T20:02:32.356Z,95217.61
2018-06-02T20:04:59.029Z,95215.88
2018-06-02T20:07:25.689Z,95225.24
2018-06-02T20:09:52.357Z,95215.55
2018-06-02T20:12:19.005Z,95224.86
2018-06-02T20:14:45.664Z,95220.84
2018-06-02T20:17:12.409Z,95218.56
2018-06-02T20:19:39.138Z,95212.48
2018-06-02T20:22:05.762Z,95212.27
2018-06-02T20:24:32.424Z,95210.03
2018-06-02T20:26:59.124Z,95210.42
2018-06-02T20:29:25.822Z,95214.05
2018-06-02T20:31:52.436Z,95218.78
2018-06-02T20:34:19.089Z,95211.37
2018-06-02T20:36:45.739Z,95209.59
2018-06-02T20:39:12.437Z,95221.20
2018-06-02T20:41:39.087Z,95222.84
2018-06-02T20:44:05.766Z,95222.16
2018-06-02T20:46:32.400Z,95223.33
2018-06-02T20:48:59.064Z,95220.37
2018-06-02T20:51:25.731Z,95219.77
2018-06-02T20:53:52.419Z,95213.34
2018-06-02T20:56:19.053Z,95209.83
2018-06-02T20:58:45.711Z,95203.31
2018-06-02T21:01:12.397Z,95211.36
2018-06-02T21:03:39.077Z,95207.11
2018-06-02T21:06:05.769Z,95212.38
2018-06-02T21:08:32.401Z,95214.59
2018-06-02T21:10:59.119Z,95216.20
2018-06-02T21:13:25.790Z,95213.39
2018-06-02T21:15:52.462Z,95211.01
2018-06-02T21:18:19.133Z,95211.17
2018-06-02T21:20:45.802Z,95211.95
2018-06-02T21:23:12.563Z,95218.47
2018-06-02T21:25:39.212Z,95222.01
2018-06-02T21:28:05.945Z,95224.20
2018-06-02T21:30:32.645Z,95224.11
2018-06-02T21:32:59.327Z,95227.65
2018-06-02T21:35:26.075Z,95224.20
2018-06-02T21:37:52.758Z,95226.67
2018-06-02T21:40:19.445Z,95226.73
2018-06-02T21:42:46.146Z,95227.03
2018-06-02T21:45:12.826Z,95227.86
2018-06-02T21:47:39.562Z,95229.37
2018-06-02T21:50:06.301Z,95236.92
2018-06-02T21:52:32.997Z,95240.34
2018-06-02T21:54:59.685Z,95235.34
2018-06-02T21:57:26.414Z,95233.50
2018-06-02T21:59:53.096Z,95232.16
2018-06-02T22:02:19.788Z,95234.02
2018-06-02T22:04:46.476Z,95230.77
2018-06-02T22:07:13.173Z,95230.13
2018-06-02T22:09:39.853Z,95228.06
2018-06-02T22:12:06.554Z,95231.09
2018-06-02T22:14:33.241Z,95231.98
2018-06-02T22:16:59.940Z,95234.30
2018-06-02T22:19:26.629Z,95233.92
2018-06-02T22:21:53.316Z,95232.91
2018-06-02T22:24:20.031Z,95233.38
2018-06-02T22:26:46.685Z,95227.38
2018-06-02T22:29:13.372Z,95229.70
2018-06-02T22:31:40.062Z,95231.84
2018-06-02T22:34:06.745Z,95224.81
2018-06-02T22:36:33.465Z,95224.91
2018-06-02T22:39:00.143Z,95224.51
2018-06-02T22:41:26.911Z,95230.55
2018-06-02T22:43:53.563Z,95220.84
2018-06-02T22:46:20.244Z,95221.77
2018-06-02T22:48:46.936Z,95222.17
2018-06-02T22:51:13.621Z,95217.80
2018-06-02T22:53:40.372Z,95218.87
2018-06-02T22:56:08.083Z,95218.75
2018-06-02T22:58:33.725Z,95221.86
2018-06-02T23:01:00.474Z,95221.91
2018-06-02T23:03:27.144Z,95231.14
2018-06-02T23:05:53.840Z,95228.99
2018-06-02T23:08:20.521Z,95217.47
2018-06-02T23:10:47.252Z,95223.68
2018-06-02T23:13:13.988Z,95225.21
2018-06-02T23:15:40.644Z,95229.75
2018-06-02T23:18:07.335Z,95220.02
2018-06-02T23:20:34.077Z,95222.28
2018-06-02T23:23:00.752Z,95222.66
2018-06-02T23:25:27.468Z,95219.63
2018-06-02T23:27:54.163Z,95219.55
2018-06-02T23:30:20.876Z,95217.23
2018-06-02T23:32:47.574Z,95214.89
2018-06-02T23:35:14.227Z,95223.35
2018-06-02T23:37:40.961Z,95217.28
2018-06-02T23:40:07.653Z,95218.16
2018-06-02T23:42:34.380Z,95213.17
2018-06-02T23:45:03.023Z,95212.73
2018-06-02T23:47:27.712Z,95203.69
2018-06-02T23:49:54.399Z,95204.38
2018-06-02T23:52:21.081Z,95203.92
2018-06-02T23:54:47.844Z,95205.06
2018-06-02T23:57:14.498Z,95202.28
2018-06-02T23:59:41.198Z,95201.52
